createdAt,value
2018-06-14T00:00:54.159Z,63.77
2018-06-14T00:03:22.942Z,63.88
2018-06-14T00:05:51.917Z,64.68
2018-06-14T00:08:20.847Z,64.57
2018-06-14T00:10:49.805Z,64.17
2018-06-14T00:13:18.949Z,64.83
2018-06-14T00:15:47.791Z,64.62
2018-06-14T00:18:16.760Z,64.09
2018-06-14T00:20:45.512Z,64.05
2018-06-14T00:23:14.186Z,64.03
2018-06-14T00:25:43.512Z,64.28
2018-06-14T00:28:12.462Z,63.98
2018-06-14T00:30:41.548Z,64.17
2018-06-14T00:33:10.534Z,64.27
2018-06-14T00:35:41.143Z,64.62
2018-06-14T00:38:10.308Z,64.37
2018-06-14T00:40:39.430Z,65.47
2018-06-14T00:43:08.203Z,65.28
2018-06-14T00:45:37.206Z,64.54
2018-06-14T00:48:06.124Z,64.57
2018-06-14T00:50:35.051Z,64.42
2018-06-14T00:53:03.963Z,64.98
2018-06-14T00:55:32.946Z,64.77
2018-06-14T00:58:01.719Z,64.99
2018-06-14T01:00:30.806Z,64.57
2018-06-14T01:02:59.645Z,64.84
2018-06-14T01:05:28.794Z,64.71
2018-06-14T01:07:57.794Z,63.77
2018-06-14T01:10:26.589Z,63.57
2018-06-14T01:12:55.442Z,63.12
2018-06-14T01:15:24.294Z,63.48
2018-06-14T01:17:53.138Z,64.14
2018-06-14T01:20:22.046Z,63.67
2018-06-14T01:22:50.954Z,63.93
2018-06-14T01:25:19.857Z,63.60
2018-06-14T01:27:49.004Z,64.18
2018-06-14T01:30:17.817Z,64.20
2018-06-14T01:32:46.746Z,64.94
2018-06-14T01:35:15.623Z,64.69
2018-06-14T01:37:55.466Z,64.70
2018-06-14T01:40:24.392Z,64.34
2018-06-14T01:42:53.209Z,65.03
2018-06-14T01:45:22.966Z,65.39
2018-06-14T01:47:52.056Z,63.57
2018-06-14T01:50:20.828Z,64.60
2018-06-14T01:52:49.716Z,64.00
2018-06-14T01:55:18.521Z,63.83
2018-06-14T01:57:47.382Z,64.40
2018-06-14T02:00:16.199Z,63.80
2018-06-14T02:02:44.968Z,63.28
2018-06-14T02:05:13.846Z,63.55
2018-06-14T02:07:42.966Z,63.27
2018-06-14T02:10:11.831Z,63.47
2018-06-14T02:12:40.689Z,63.34
2018-06-14T02:15:09.566Z,63.93
2018-06-14T02:17:38.467Z,63.33
2018-06-14T02:20:07.302Z,63.62
2018-06-14T02:22:36.257Z,62.99
2018-06-14T02:25:05.184Z,63.29
2018-06-14T02:27:34.039Z,63.30
2018-06-14T02:30:02.871Z,63.17
2018-06-14T02:32:31.689Z,63.07
2018-06-14T02:35:00.667Z,63.58
2018-06-14T02:37:29.771Z,63.55
2018-06-14T02:39:58.704Z,63.46
2018-06-14T02:42:27.457Z,63.10
2018-06-14T02:44:56.670Z,63.44
2018-06-14T02:47:25.418Z,62.87
2018-06-14T02:49:54.327Z,62.92
2018-06-14T02:52:23.146Z,63.22
2018-06-14T02:54:51.990Z,62.94
2018-06-14T02:57:20.986Z,62.19
2018-06-14T02:59:49.881Z,62.78
2018-06-14T03:02:18.842Z,62.50
2018-06-14T03:04:47.759Z,62.29
2018-06-14T03:07:21.837Z,62.48
2018-06-14T03:09:50.648Z,62.21
2018-06-14T03:12:19.497Z,62.35
2018-06-14T03:14:49.681Z,62.30
2018-06-14T03:17:20.118Z,62.46
2018-06-14T03:19:50.011Z,63.20
2018-06-14T03:22:19.296Z,63.38
2018-06-14T03:24:48.398Z,62.62
2018-06-14T03:27:17.727Z,62.59
2018-06-14T03:29:46.869Z,62.74
2018-06-14T03:32:15.922Z,63.46
2018-06-14T03:34:44.695Z,62.58
2018-06-14T03:37:13.797Z,61.88
2018-06-14T03:39:42.849Z,61.60
2018-06-14T03:42:14.895Z,62.34
2018-06-14T03:44:44.437Z,62.91
2018-06-14T03:47:13.511Z,62.50
2018-06-14T03:49:43.282Z,62.88
2018-06-14T03:52:16.551Z,63.57
2018-06-14T03:54:45.357Z,63.28
2018-06-14T03:57:14.779Z,63.16
2018-06-14T03:59:43.690Z,63.76
2018-06-14T04:02:12.965Z,63.09
2018-06-14T04:04:41.746Z,63.39
2018-06-14T04:07:10.666Z,63.08
2018-06-14T04:09:39.633Z,63.69
2018-06-14T04:12:08.448Z,63.85
2018-06-14T04:14:37.328Z,64.03
2018-06-14T04:17:06.224Z,64.45
2018-06-14T04:19:34.984Z,65.04
2018-06-14T04:22:03.942Z,65.94
2018-06-14T04:24:32.782Z,65.64
2018-06-14T04:27:01.664Z,66.13
2018-06-14T04:29:30.497Z,66.10
2018-06-14T04:31:59.193Z,66.69
2018-06-14T04:34:28.098Z,66.23
2018-06-14T04:36:56.938Z,65.78
2018-06-14T04:39:25.701Z,65.84
2018-06-14T04:41:54.628Z,64.72
2018-06-14T04:44:23.393Z,65.26
2018-06-14T04:46:52.138Z,64.80
2018-06-14T04:49:21.104Z,64.73
2018-06-14T04:51:49.938Z,65.01
2018-06-14T04:54:18.899Z,63.78
2018-06-14T04:56:47.874Z,64.70
2018-06-14T04:59:16.658Z,64.76
2018-06-14T05:01:45.481Z,65.40
2018-06-14T05:04:14.879Z,65.58
2018-06-14T05:06:44.282Z,65.00
2018-06-14T05:09:14.568Z,64.89
2018-06-14T05:11:43.238Z,64.68
2018-06-14T05:14:12.142Z,64.76
2018-06-14T05:16:40.961Z,63.99
2018-06-14T05:19:09.839Z,65.14
2018-06-14T05:21:38.747Z,65.06
2018-06-14T05:24:07.719Z,64.07
2018-06-14T05:26:36.630Z,64.55
2018-06-14T05:29:06.180Z,63.45
2018-06-14T05:31:35.357Z,63.24
2018-06-14T05:34:04.420Z,63.04
2018-06-14T05:36:33.293Z,62.69
2018-06-14T05:39:02.222Z,62.73
2018-06-14T05:41:31.140Z,62.40
2018-06-14T05:44:00.098Z,62.25
2018-06-14T05:46:29.130Z,60.98
2018-06-14T05:48:58.228Z,60.59
2018-06-14T05:51:27.229Z,61.78
2018-06-14T05:53:56.413Z,61.32
2018-06-14T05:56:25.435Z,61.50
2018-06-14T05:58:54.669Z,60.10
2018-06-14T06:01:23.614Z,61.26
2018-06-14T06:03:52.377Z,59.71
2018-06-14T06:06:21.414Z,60.46
2018-06-14T06:08:50.327Z,59.61
2018-06-14T06:11:19.074Z,59.04
2018-06-14T06:13:47.886Z,58.94
2018-06-14T06:16:16.690Z,58.99
2018-06-14T06:18:45.571Z,59.73
2018-06-14T06:21:14.352Z,60.17
2018-06-14T06:23:43.360Z,59.76
2018-06-14T06:26:12.296Z,59.10
2018-06-14T06:28:41.977Z,58.03
2018-06-14T06:31:10.868Z,58.63
2018-06-14T06:33:40.155Z,58.23
2018-06-14T06:36:09.035Z,57.88
2018-06-14T06:38:37.958Z,57.37
2018-06-14T06:41:07.110Z,57.28
2018-06-14T06:43:35.944Z,56.21
2018-06-14T06:46:05.122Z,57.45
2018-06-14T06:48:33.861Z,56.41
2018-06-14T06:51:02.775Z,55.54
2018-06-14T06:53:31.663Z,55.62
2018-06-14T06:56:00.652Z,56.37
2018-06-14T06:58:29.724Z,55.75
2018-06-14T07:00:58.820Z,55.71
2018-06-14T07:03:27.866Z,55.02
2018-06-14T07:05:56.896Z,55.53
2018-06-14T07:08:25.618Z,54.16
2018-06-14T07:10:54.612Z,53.59
2018-06-14T07:13:23.659Z,54.43
2018-06-14T07:15:52.759Z,54.26
2018-06-14T07:18:21.819Z,55.21
2018-06-14T07:20:51.229Z,55.16
2018-06-14T07:23:20.529Z,55.07
2018-06-14T07:25:49.511Z,53.98
2018-06-14T07:28:18.508Z,53.76
2018-06-14T07:30:47.483Z,52.32
2018-06-14T07:33:16.574Z,52.82
2018-06-14T07:35:45.410Z,53.39
2018-06-14T07:38:14.533Z,55.43
2018-06-14T07:40:43.401Z,55.37
2018-06-14T07:43:12.362Z,54.67
2018-06-14T07:45:41.368Z,55.39
2018-06-14T07:48:10.253Z,53.67
2018-06-14T07:50:39.090Z,53.55
2018-06-14T07:53:08.116Z,53.59
2018-06-14T07:55:37.050Z,53.59
2018-06-14T07:58:06.043Z,54.21
2018-06-14T08:00:35.126Z,53.99
2018-06-14T08:03:04.063Z,52.98
2018-06-14T08:05:33.285Z,53.10
2018-06-14T08:08:02.174Z,52.34
2018-06-14T08:10:31.182Z,53.50
2018-06-14T08:13:00.704Z,52.65
2018-06-14T08:15:29.554Z,52.85
2018-06-14T08:17:58.303Z,50.61
2018-06-14T08:20:27.385Z,49.77
2018-06-14T08:22:56.242Z,50.41
2018-06-14T08:25:25.206Z,50.39
2018-06-14T08:27:54.233Z,50.68
2018-06-14T08:30:23.240Z,50.16
2018-06-14T08:32:52.023Z,48.56
2018-06-14T08:35:20.909Z,48.21
2018-06-14T08:37:50.059Z,47.93
2018-06-14T08:40:18.899Z,48.16
2018-06-14T08:42:47.914Z,49.80
2018-06-14T08:45:16.790Z,47.55
2018-06-14T08:47:45.478Z,48.10
2018-06-14T08:50:14.273Z,48.82
2018-06-14T08:52:43.593Z,49.83
2018-06-14T08:55:12.958Z,49.82
2018-06-14T08:57:42.340Z,49.43
2018-06-14T09:00:11.395Z,48.98
2018-06-14T09:02:40.405Z,50.47
2018-06-14T09:05:09.413Z,49.58
2018-06-14T09:07:39.029Z,50.89
2018-06-14T09:10:07.916Z,49.23
2018-06-14T09:12:36.974Z,48.60
2018-06-14T09:15:09.647Z,50.28
2018-06-14T09:17:38.521Z,50.99
2018-06-14T09:20:24.779Z,50.43
2018-06-14T09:22:53.875Z,48.98
2018-06-14T09:25:23.137Z,50.13
2018-06-14T09:27:52.094Z,50.32
2018-06-14T09:30:20.990Z,50.06
2018-06-14T09:32:49.793Z,48.59
2018-06-14T09:35:18.622Z,48.28
2018-06-14T09:37:47.735Z,48.65
2018-06-14T09:40:16.606Z,47.38
2018-06-14T09:42:46.171Z,46.79
2018-06-14T09:45:15.214Z,46.08
2018-06-14T09:47:43.992Z,46.68
2018-06-14T09:50:12.756Z,46.53
2018-06-14T09:52:41.610Z,46.30
2018-06-14T09:55:10.556Z,45.88
2018-06-14T09:57:39.409Z,44.87
2018-06-14T10:00:09.328Z,44.71
2018-06-14T10:02:38.019Z,45.32
2018-06-14T10:05:06.950Z,45.10
2018-06-14T10:07:35.818Z,44.67
2018-06-14T10:10:04.857Z,43.97
2018-06-14T10:12:35.342Z,44.52
2018-06-14T10:15:05.749Z,43.82
2018-06-14T10:17:35.178Z,43.11
2018-06-14T10:20:04.196Z,43.22
2018-06-14T10:22:32.907Z,43.88
2018-06-14T10:25:01.638Z,43.18
2018-06-14T10:27:30.447Z,44.83
2018-06-14T10:29:59.324Z,42.49
2018-06-14T10:32:28.132Z,41.85
2018-06-14T10:34:57.858Z,41.43
2018-06-14T10:37:26.647Z,41.90
2018-06-14T10:39:55.683Z,43.07
2018-06-14T10:42:24.504Z,41.64
2018-06-14T10:44:53.380Z,41.55
2018-06-14T10:47:22.318Z,42.19
2018-06-14T10:49:51.186Z,42.60
2018-06-14T10:52:20.238Z,41.55
2018-06-14T10:54:49.246Z,41.81
2018-06-14T10:57:18.439Z,41.41
2018-06-14T10:59:47.245Z,41.61
2018-06-14T11:02:15.984Z,41.21
2018-06-14T11:04:44.853Z,40.57
2018-06-14T11:07:13.806Z,42.09
2018-06-14T11:09:42.521Z,40.10
2018-06-14T11:12:11.422Z,41.49
2018-06-14T11:14:40.600Z,40.44
2018-06-14T11:17:09.518Z,39.93
2018-06-14T11:19:38.253Z,40.17
2018-06-14T11:22:07.357Z,41.18
2018-06-14T11:24:36.215Z,40.69
2018-06-14T11:27:05.223Z,40.62
2018-06-14T11:29:36.584Z,41.38
2018-06-14T11:32:05.605Z,39.93
2018-06-14T11:34:34.395Z,39.99
2018-06-14T11:37:03.581Z,39.44
2018-06-14T11:39:32.457Z,41.10
2018-06-14T11:42:01.578Z,40.37
2018-06-14T11:44:30.414Z,40.78
2018-06-14T11:46:59.329Z,40.62
2018-06-14T11:49:28.354Z,41.40
2018-06-14T11:51:57.158Z,42.34
2018-06-14T11:54:26.092Z,41.56
2018-06-14T11:56:55.074Z,41.94
2018-06-14T11:59:24.013Z,42.19
2018-06-14T12:01:52.825Z,41.64
2018-06-14T12:04:21.763Z,40.11
2018-06-14T12:06:50.568Z,40.87
2018-06-14T12:09:19.676Z,41.82
2018-06-14T12:11:48.473Z,41.46
2018-06-14T12:14:17.679Z,41.34
2018-06-14T12:16:46.481Z,40.75
2018-06-14T12:19:15.399Z,41.00
2018-06-14T12:21:44.395Z,39.01
2018-06-14T12:24:13.209Z,38.69
2018-06-14T12:26:42.028Z,40.87
2018-06-14T12:29:10.903Z,42.73
2018-06-14T12:31:40.247Z,42.77
2018-06-14T12:34:10.062Z,39.23
2018-06-14T12:36:38.834Z,38.82
2018-06-14T12:39:08.958Z,39.82
2018-06-14T12:41:38.042Z,39.48
2018-06-14T12:44:07.010Z,42.55
2018-06-14T12:46:35.910Z,37.08
2018-06-14T12:49:04.829Z,37.29
2018-06-14T12:51:34.301Z,37.52
2018-06-14T12:54:04.314Z,38.25
2018-06-14T12:56:33.327Z,36.69
2018-06-14T12:59:02.644Z,40.20
2018-06-14T13:01:31.819Z,37.95
2018-06-14T13:04:00.667Z,37.68
2018-06-14T13:06:29.398Z,37.94
2018-06-14T13:08:58.517Z,39.83
2018-06-14T13:11:27.343Z,39.26
2018-06-14T13:13:56.772Z,38.69
2018-06-14T13:16:25.496Z,38.70
2018-06-14T13:18:54.258Z,40.45
2018-06-14T13:21:23.690Z,40.25
2018-06-14T13:23:52.771Z,40.56
2018-06-14T13:26:21.542Z,38.90
2018-06-14T13:28:50.767Z,40.26
2018-06-14T13:31:19.530Z,40.23
2018-06-14T13:33:48.429Z,39.43
2018-06-14T13:36:17.326Z,39.53
2018-06-14T13:38:46.364Z,38.40
2018-06-14T13:41:15.285Z,39.20
2018-06-14T13:43:44.117Z,39.05
2018-06-14T13:46:13.211Z,39.80
2018-06-14T13:48:42.207Z,40.15
2018-06-14T13:51:11.271Z,38.48
2018-06-14T13:53:40.167Z,38.92
2018-06-14T13:56:09.791Z,39.65
2018-06-14T13:58:38.801Z,39.19
2018-06-14T14:01:08.958Z,38.54
2018-06-14T14:03:37.855Z,40.41
2018-06-14T14:06:06.830Z,40.42
2018-06-14T14:08:37.128Z,40.01
2018-06-14T14:11:06.110Z,38.99
2018-06-14T14:13:35.126Z,37.79
2018-06-14T14:16:04.017Z,39.45
2018-06-14T14:18:32.800Z,40.62
2018-06-14T14:21:01.692Z,39.77
2018-06-14T14:23:30.504Z,38.19
2018-06-14T14:25:59.381Z,42.44
2018-06-14T14:28:28.436Z,37.78
2018-06-14T14:30:57.347Z,39.54
2018-06-14T14:33:26.209Z,38.68
2018-06-14T14:35:55.058Z,39.75
2018-06-14T14:38:24.246Z,38.04
2018-06-14T14:40:53.090Z,37.04
2018-06-14T14:43:22.122Z,40.30
2018-06-14T14:45:51.120Z,37.99
2018-06-14T14:48:20.002Z,36.17
2018-06-14T14:50:49.075Z,37.59
2018-06-14T14:53:17.955Z,38.17
2018-06-14T14:55:46.882Z,39.08
2018-06-14T14:58:15.754Z,40.28
2018-06-14T15:00:44.762Z,40.99
2018-06-14T15:03:13.538Z,40.91
2018-06-14T15:05:42.430Z,40.34
2018-06-14T15:08:11.395Z,41.01
2018-06-14T15:10:40.142Z,40.08
2018-06-14T15:13:09.177Z,41.02
2018-06-14T15:15:38.110Z,39.59
2018-06-14T15:18:07.545Z,40.48
2018-06-14T15:20:36.406Z,41.63
2018-06-14T15:23:05.716Z,41.88
2018-06-14T15:25:34.525Z,41.45
2018-06-14T15:28:03.330Z,40.46
2018-06-14T15:30:32.149Z,39.97
2018-06-14T15:33:01.095Z,40.34
2018-06-14T15:35:29.860Z,40.53
2018-06-14T15:37:58.758Z,40.71
2018-06-14T15:40:27.846Z,40.01
2018-06-14T15:42:56.682Z,39.29
2018-06-14T15:45:25.574Z,38.88
2018-06-14T15:47:54.871Z,39.87
2018-06-14T15:50:24.090Z,39.53
2018-06-14T15:52:53.182Z,39.41
2018-06-14T15:56:42.781Z,40.20
2018-06-14T15:59:13.055Z,39.52
2018-06-14T16:01:41.901Z,39.72
2018-06-14T16:04:11.015Z,39.51
2018-06-14T16:06:39.864Z,39.23
2018-06-14T16:09:10.061Z,36.62
2018-06-14T16:11:38.856Z,36.18
2018-06-14T16:14:08.026Z,36.45
2018-06-14T16:16:36.945Z,36.09
2018-06-14T16:19:05.990Z,37.56
2018-06-14T16:21:35.195Z,39.71
2018-06-14T16:24:04.149Z,40.63
2018-06-14T16:26:33.157Z,41.50
2018-06-14T16:29:02.031Z,41.63
2018-06-14T16:31:30.864Z,42.19
2018-06-14T16:33:59.764Z,41.93
2018-06-14T16:36:28.936Z,42.02
2018-06-14T16:38:57.879Z,42.04
2018-06-14T16:41:26.686Z,42.54
2018-06-14T16:43:55.964Z,41.31
2018-06-14T16:46:24.895Z,40.73
2018-06-14T16:48:53.817Z,40.11
2018-06-14T16:51:22.758Z,40.42
2018-06-14T16:53:51.427Z,39.33
2018-06-14T16:56:20.162Z,41.41
2018-06-14T16:58:49.002Z,39.68
2018-06-14T17:01:17.973Z,39.32
2018-06-14T17:03:47.335Z,38.84
2018-06-14T17:06:16.249Z,38.49
2018-06-14T17:08:44.935Z,39.04
2018-06-14T17:11:13.894Z,40.07
2018-06-14T17:13:42.885Z,39.17
2018-06-14T17:16:11.744Z,40.25
2018-06-14T17:18:40.701Z,40.92
2018-06-14T17:21:09.650Z,41.89
2018-06-14T17:23:38.694Z,40.04
2018-06-14T17:26:07.447Z,41.05
2018-06-14T17:28:36.473Z,40.69
2018-06-14T17:31:05.541Z,41.80
2018-06-14T17:33:34.361Z,42.16
2018-06-14T17:36:03.167Z,41.54
2018-06-14T17:38:32.152Z,41.94
2018-06-14T17:41:01.312Z,41.76
2018-06-14T17:43:30.399Z,42.30
2018-06-14T17:45:59.905Z,41.72
2018-06-14T17:48:29.242Z,40.72
2018-06-14T17:50:58.520Z,39.92
2018-06-14T17:53:27.999Z,38.50
2018-06-14T17:55:57.234Z,37.71
2018-06-14T17:58:26.066Z,36.79
2018-06-14T18:00:55.152Z,37.60
2018-06-14T18:03:24.161Z,37.36
2018-06-14T18:05:53.286Z,39.33
2018-06-14T18:08:22.251Z,40.60
2018-06-14T18:10:51.326Z,41.08
2018-06-14T18:13:20.390Z,41.64
2018-06-14T18:15:49.082Z,43.46
2018-06-14T18:18:18.205Z,43.84
2018-06-14T18:20:47.096Z,45.02
2018-06-14T18:23:16.301Z,45.27
2018-06-14T18:25:45.274Z,46.02
2018-06-14T18:28:14.346Z,46.97
2018-06-14T18:30:43.482Z,46.87
2018-06-14T18:33:12.374Z,46.73
2018-06-14T18:35:41.401Z,46.97
2018-06-14T18:38:10.337Z,47.78
2018-06-14T18:40:39.419Z,47.97
2018-06-14T18:43:08.357Z,47.35
2018-06-14T18:45:37.382Z,47.92
2018-06-14T18:48:06.987Z,48.18
2018-06-14T18:50:35.983Z,48.51
2018-06-14T18:53:05.252Z,48.70
2018-06-14T18:55:34.208Z,48.95
2018-06-14T18:58:03.163Z,48.99
2018-06-14T19:00:32.036Z,49.22
2018-06-14T19:03:00.989Z,49.45
2018-06-14T19:05:29.928Z,49.79
2018-06-14T19:07:59.107Z,50.09
2018-06-14T19:10:28.153Z,49.78
2018-06-14T19:12:57.095Z,49.85
2018-06-14T19:15:26.114Z,50.08
2018-06-14T19:17:54.882Z,50.07
2018-06-14T19:20:24.534Z,50.46
2018-06-14T19:22:53.368Z,50.82
2018-06-14T19:25:22.845Z,51.24
2018-06-14T19:27:52.033Z,50.79
2018-06-14T19:30:20.947Z,50.87
2018-06-14T19:32:49.627Z,51.02
2018-06-14T19:35:18.606Z,50.39
2018-06-14T19:37:47.469Z,50.76
2018-06-14T19:40:16.457Z,51.21
2018-06-14T19:42:45.354Z,51.79
2018-06-14T19:45:14.177Z,51.46
2018-06-14T19:47:43.007Z,51.37
2018-06-14T19:50:12.542Z,51.81
2018-06-14T19:52:41.405Z,51.76
2018-06-14T19:55:10.185Z,52.16
2018-06-14T19:57:39.076Z,52.26
2018-06-14T20:00:07.940Z,52.25
2018-06-14T20:02:37.498Z,52.55
2018-06-14T20:05:06.473Z,52.55
2018-06-14T20:07:35.395Z,52.59
2018-06-14T20:10:04.463Z,52.67
2018-06-14T20:12:33.385Z,52.75
2018-06-14T20:15:02.291Z,52.94
2018-06-14T20:17:31.330Z,53.21
2018-06-14T20:20:01.894Z,52.99
2018-06-14T20:22:30.832Z,53.05
2018-06-14T20:24:59.754Z,53.37
2018-06-14T20:27:28.725Z,53.69
2018-06-14T20:29:57.790Z,53.92
2018-06-14T20:32:29.676Z,54.20
2018-06-14T20:34:58.769Z,54.29
2018-06-14T20:37:27.614Z,54.71
2018-06-14T20:39:56.625Z,54.10
2018-06-14T20:42:25.626Z,54.51
2018-06-14T20:44:54.405Z,55.16
2018-06-14T20:47:23.482Z,54.95
2018-06-14T20:49:52.275Z,55.22
2018-06-14T20:52:21.143Z,55.13
2018-06-14T20:54:50.030Z,54.62
2018-06-14T20:57:19.083Z,54.33
2018-06-14T20:59:48.155Z,55.00
2018-06-14T21:02:19.108Z,55.42
2018-06-14T21:04:49.334Z,55.51
2018-06-14T21:07:19.434Z,54.97
2018-06-14T21:09:49.017Z,55.37
2018-06-14T21:12:17.950Z,55.28
2018-06-14T21:14:47.428Z,55.48
2018-06-14T21:17:16.251Z,55.95
2018-06-14T21:19:45.220Z,56.15
2018-06-14T21:22:14.365Z,56.42
2018-06-14T21:24:43.454Z,56.39
2018-06-14T21:27:12.430Z,56.46
2018-06-14T21:29:41.514Z,56.76
2018-06-14T21:32:12.543Z,57.01
2018-06-14T21:34:41.502Z,57.47
2018-06-14T21:37:10.642Z,57.47
2018-06-14T21:39:39.995Z,57.96
2018-06-14T21:42:09.031Z,58.65
2018-06-14T21:44:37.845Z,58.70
2018-06-14T21:47:06.814Z,58.35
2018-06-14T21:49:35.652Z,59.33
2018-06-14T21:52:04.773Z,59.87
2018-06-14T21:54:33.591Z,60.44
2018-06-14T21:57:02.585Z,60.86
2018-06-14T21:59:31.566Z,60.95
2018-06-14T22:02:00.586Z,60.78
2018-06-14T22:04:29.401Z,60.38
2018-06-14T22:06:58.330Z,60.93
2018-06-14T22:09:27.407Z,61.60
2018-06-14T22:11:56.318Z,61.27
2018-06-14T22:14:25.359Z,61.88
2018-06-14T22:16:54.201Z,61.97
2018-06-14T22:19:23.136Z,61.52
2018-06-14T22:21:52.206Z,62.20
2018-06-14T22:24:21.178Z,62.08
2018-06-14T22:26:50.286Z,62.42
2018-06-14T22:29:19.217Z,62.68
2018-06-14T22:31:48.242Z,63.11
2018-06-14T22:34:28.189Z,62.96
2018-06-14T22:36:57.518Z,63.26
2018-06-14T22:39:26.921Z,62.98
2018-06-14T22:41:55.838Z,63.86
2018-06-14T22:44:25.132Z,64.25
2018-06-14T22:46:54.110Z,64.53
2018-06-14T22:49:23.242Z,64.02
2018-06-14T22:53:02.346Z,63.95
2018-06-14T22:55:31.340Z,64.18
2018-06-14T22:58:00.329Z,64.61
2018-06-14T23:01:50.964Z,65.29
2018-06-14T23:04:25.259Z,65.61
2018-06-14T23:06:54.488Z,65.54
2018-06-14T23:10:35.957Z,65.62
2018-06-14T23:13:05.452Z,66.07
2018-06-14T23:15:34.291Z,66.64
2018-06-14T23:18:03.396Z,66.02
2018-06-14T23:20:33.453Z,66.66
2018-06-14T23:23:03.285Z,66.83
2018-06-14T23:25:32.753Z,66.78
2018-06-14T23:28:01.597Z,66.58
2018-06-14T23:30:30.490Z,66.91
2018-06-14T23:32:59.555Z,66.66
2018-06-14T23:35:28.454Z,67.09
2018-06-14T23:37:57.425Z,67.40
2018-06-14T23:40:26.451Z,67.57
2018-06-14T23:42:55.426Z,67.89
2018-06-14T23:45:24.533Z,67.99
2018-06-14T23:47:53.350Z,68.51
2018-06-14T23:50:22.404Z,68.30
2018-06-14T23:52:51.253Z,68.41
2018-06-14T23:55:19.976Z,68.28
2018-06-14T23:57:48.993Z,68.24
